sensor_id;sensor_type;location;lat;lon;timestamp;P1;durP1;ratioP1;P2;durP2;ratioP2
19101;SDS011;9683;49.028;12.064;2023-11-22T00:01:06;205.10;;;12.50;;
19101;SDS011;9683;49.028;12.064;2023-11-22T00:03:33;196.98;;;12.85;;
19101;SDS011;9683;49.028;12.064;2023-11-22T00:06:02;222.57;;;13.30;;
19101;SDS011;9683;49.028;12.064;2023-11-22T00:08:28;200.05;;;12.05;;
19101;SDS011;9683;49.028;12.064;2023-11-22T00:10:55;205.82;;;13.35;;
19101;SDS011;9683;49.028;12.064;2023-11-22T00:13:22;209.30;;;12.05;;
19101;SDS011;9683;49.028;12.064;2023-11-22T00:15:48;223.95;;;13.20;;
19101;SDS011;9683;49.028;12.064;2023-11-22T00:18:15;171.63;;;10.65;;
19101;SDS011;9683;49.028;12.064;2023-11-22T00:20:42;184.30;;;10.73;;
19101;SDS011;9683;49.028;12.064;2023-11-22T00:23:10;221.52;;;12.98;;
19101;SDS011;9683;49.028;12.064;2023-11-22T00:25:38;224.35;;;13.25;;
19101;SDS011;9683;49.028;12.064;2023-11-22T00:28:04;198.25;;;11.85;;
19101;SDS011;9683;49.028;12.064;2023-11-22T00:30:31;220.27;;;12.85;;
19101;SDS011;9683;49.028;12.064;2023-11-22T00:32:58;203.20;;;12.20;;
19101;SDS011;9683;49.028;12.064;2023-11-22T00:35:25;209.40;;;11.82;;
19101;SDS011;9683;49.028;12.064;2023-11-22T00:37:52;206.60;;;12.10;;
19101;SDS011;9683;49.028;12.064;2023-11-22T00:40:20;233.20;;;13.48;;
19101;SDS011;9683;49.028;12.064;2023-11-22T00:42:46;194.40;;;11.30;;
19101;SDS011;9683;49.028;12.064;2023-11-22T00:45:13;200.07;;;11.55;;
19101;SDS011;9683;49.028;12.064;2023-11-22T00:47:39;220.05;;;12.30;;
19101;SDS011;9683;49.028;12.064;2023-11-22T00:50:06;199.30;;;11.70;;
19101;SDS011;9683;49.028;12.064;2023-11-22T00:52:33;213.90;;;12.60;;
19101;SDS011;9683;49.028;12.064;2023-11-22T00:55:00;242.85;;;13.90;;
19101;SDS011;9683;49.028;12.064;2023-11-22T00:57:27;210.38;;;11.98;;
19101;SDS011;9683;49.028;12.064;2023-11-22T00:59:55;195.93;;;11.93;;
19101;SDS011;9683;49.028;12.064;2023-11-22T01:02:22;238.48;;;14.23;;
19101;SDS011;9683;49.028;12.064;2023-11-22T01:04:48;208.32;;;12.23;;
19101;SDS011;9683;49.028;12.064;2023-11-22T01:07:15;223.77;;;13.10;;
19101;SDS011;9683;49.028;12.064;2023-11-22T01:09:41;213.05;;;12.52;;
19101;SDS011;9683;49.028;12.064;2023-11-22T01:12:08;156.63;;;9.45;;
19101;SDS011;9683;49.028;12.064;2023-11-22T01:14:38;181.63;;;10.75;;
19101;SDS011;9683;49.028;12.064;2023-11-22T01:17:05;154.70;;;9.85;;
19101;SDS011;9683;49.028;12.064;2023-11-22T01:19:31;201.40;;;11.52;;
19101;SDS011;9683;49.028;12.064;2023-11-22T01:21:58;184.32;;;11.23;;
19101;SDS011;9683;49.028;12.064;2023-11-22T01:24:24;198.05;;;11.75;;
19101;SDS011;9683;49.028;12.064;2023-11-22T01:26:53;238.82;;;14.38;;
19101;SDS011;9683;49.028;12.064;2023-11-22T01:29:20;199.23;;;11.65;;
19101;SDS011;9683;49.028;12.064;2023-11-22T01:31:48;203.27;;;12.27;;
19101;SDS011;9683;49.028;12.064;2023-11-22T01:34:14;222.93;;;12.43;;
19101;SDS011;9683;49.028;12.064;2023-11-22T01:36:42;214.68;;;12.35;;
19101;SDS011;9683;49.028;12.064;2023-11-22T01:39:10;211.20;;;12.25;;
19101;SDS011;9683;49.028;12.064;2023-11-22T01:41:37;187.32;;;10.77;;
19101;SDS011;9683;49.028;12.064;2023-11-22T01:44:04;224.07;;;12.88;;
19101;SDS011;9683;49.028;12.064;2023-11-22T01:46:30;188.35;;;11.35;;
19101;SDS011;9683;49.028;12.064;2023-11-22T01:49:00;187.13;;;11.65;;
19101;SDS011;9683;49.028;12.064;2023-11-22T01:51:27;210.25;;;12.27;;
19101;SDS011;9683;49.028;12.064;2023-11-22T01:53:55;247.93;;;14.63;;
19101;SDS011;9683;49.028;12.064;2023-11-22T01:56:23;202.80;;;11.88;;
19101;SDS011;9683;49.028;12.064;2023-11-22T01:58:52;215.68;;;13.88;;
19101;SDS011;9683;49.028;12.064;2023-11-22T02:01:21;218.25;;;12.88;;
19101;SDS011;9683;49.028;12.064;2023-11-22T02:03:48;209.35;;;12.45;;
19101;SDS011;9683;49.028;12.064;2023-11-22T02:06:16;228.95;;;13.35;;
19101;SDS011;9683;49.028;12.064;2023-11-22T02:08:43;214.15;;;12.35;;
19101;SDS011;9683;49.028;12.064;2023-11-22T02:11:09;188.05;;;11.02;;
19101;SDS011;9683;49.028;12.064;2023-11-22T02:13:36;234.18;;;13.55;;
19101;SDS011;9683;49.028;12.064;2023-11-22T02:16:02;219.75;;;12.77;;
19101;SDS011;9683;49.028;12.064;2023-11-22T02:18:29;233.15;;;13.10;;
19101;SDS011;9683;49.028;12.064;2023-11-22T02:20:56;238.32;;;14.20;;
19101;SDS011;9683;49.028;12.064;2023-11-22T02:23:24;180.10;;;11.35;;
19101;SDS011;9683;49.028;12.064;2023-11-22T02:25:51;150.50;;;9.18;;
19101;SDS011;9683;49.028;12.064;2023-11-22T02:28:18;113.32;;;7.97;;
19101;SDS011;9683;49.028;12.064;2023-11-22T02:30:45;166.45;;;10.32;;
19101;SDS011;9683;49.028;12.064;2023-11-22T02:33:12;198.90;;;11.93;;
19101;SDS011;9683;49.028;12.064;2023-11-22T02:35:39;206.75;;;12.18;;
19101;SDS011;9683;49.028;12.064;2023-11-22T02:38:06;173.73;;;11.00;;
19101;SDS011;9683;49.028;12.064;2023-11-22T02:40:33;211.77;;;12.50;;
19101;SDS011;9683;49.028;12.064;2023-11-22T02:43:00;197.35;;;11.93;;
19101;SDS011;9683;49.028;12.064;2023-11-22T02:45:30;203.18;;;11.73;;
19101;SDS011;9683;49.028;12.064;2023-11-22T02:47:57;216.63;;;12.48;;
19101;SDS011;9683;49.028;12.064;2023-11-22T02:50:24;225.98;;;12.85;;
19101;SDS011;9683;49.028;12.064;2023-11-22T02:52:52;200.20;;;11.45;;
19101;SDS011;9683;49.028;12.064;2023-11-22T02:55:18;209.93;;;12.27;;
19101;SDS011;9683;49.028;12.064;2023-11-22T02:57:46;209.93;;;12.00;;
19101;SDS011;9683;49.028;12.064;2023-11-22T03:00:13;198.57;;;11.30;;
19101;SDS011;9683;49.028;12.064;2023-11-22T03:02:40;196.40;;;11.65;;
19101;SDS011;9683;49.028;12.064;2023-11-22T03:05:07;201.43;;;12.23;;
19101;SDS011;9683;49.028;12.064;2023-11-22T03:07:34;214.60;;;12.52;;
19101;SDS011;9683;49.028;12.064;2023-11-22T03:10:01;223.40;;;12.93;;
19101;SDS011;9683;49.028;12.064;2023-11-22T03:12:28;194.68;;;11.55;;
19101;SDS011;9683;49.028;12.064;2023-11-22T03:14:56;204.57;;;12.00;;
19101;SDS011;9683;49.028;12.064;2023-11-22T03:17:25;217.95;;;12.52;;
19101;SDS011;9683;49.028;12.064;2023-11-22T03:19:53;230.10;;;13.50;;
19101;SDS011;9683;49.028;12.064;2023-11-22T03:22:21;197.65;;;12.73;;
19101;SDS011;9683;49.028;12.064;2023-11-22T03:24:47;218.90;;;12.85;;
19101;SDS011;9683;49.028;12.064;2023-11-22T03:27:14;218.30;;;12.35;;
19101;SDS011;9683;49.028;12.064;2023-11-22T03:29:40;208.70;;;12.27;;
19101;SDS011;9683;49.028;12.064;2023-11-22T03:32:08;230.93;;;13.95;;
19101;SDS011;9683;49.028;12.064;2023-11-22T03:34:34;214.18;;;12.35;;
19101;SDS011;9683;49.028;12.064;2023-11-22T03:37:01;274.77;;;16.10;;
19101;SDS011;9683;49.028;12.064;2023-11-22T03:39:28;239.35;;;13.75;;
19101;SDS011;9683;49.028;12.064;2023-11-22T03:41:54;228.07;;;12.85;;
19101;SDS011;9683;49.028;12.064;2023-11-22T03:44:22;245.82;;;13.85;;
19101;SDS011;9683;49.028;12.064;2023-11-22T03:46:48;216.98;;;12.43;;
19101;SDS011;9683;49.028;12.064;2023-11-22T03:49:16;190.20;;;11.77;;
19101;SDS011;9683;49.028;12.064;2023-11-22T03:51:43;207.50;;;12.05;;
19101;SDS011;9683;49.028;12.064;2023-11-22T03:54:09;211.93;;;12.27;;
19101;SDS011;9683;49.028;12.064;2023-11-22T03:56:37;195.38;;;11.70;;
19101;SDS011;9683;49.028;12.064;2023-11-22T03:59:04;228.05;;;13.25;;
19101;SDS011;9683;49.028;12.064;2023-11-22T04:01:31;231.35;;;13.48;;
19101;SDS011;9683;49.028;12.064;2023-11-22T04:03:57;191.85;;;11.82;;
19101;SDS011;9683;49.028;12.064;2023-11-22T04:06:25;206.13;;;12.48;;
19101;SDS011;9683;49.028;12.064;2023-11-22T04:08:52;270.92;;;16.58;;
19101;SDS011;9683;49.028;12.064;2023-11-22T04:11:19;216.98;;;14.25;;
19101;SDS011;9683;49.028;12.064;2023-11-22T04:13:46;180.75;;;11.32;;
19101;SDS011;9683;49.028;12.064;2023-11-22T04:16:13;152.85;;;9.90;;
19101;SDS011;9683;49.028;12.064;2023-11-22T04:18:39;226.38;;;14.13;;
19101;SDS011;9683;49.028;12.064;2023-11-22T04:21:06;237.75;;;13.95;;
19101;SDS011;9683;49.028;12.064;2023-11-22T04:23:35;244.13;;;14.80;;
19101;SDS011;9683;49.028;12.064;2023-11-22T04:26:02;245.43;;;14.48;;
19101;SDS011;9683;49.028;12.064;2023-11-22T04:28:29;266.13;;;16.38;;
19101;SDS011;9683;49.028;12.064;2023-11-22T04:30:56;208.93;;;13.65;;
19101;SDS011;9683;49.028;12.064;2023-11-22T04:33:23;220.15;;;13.63;;
19101;SDS011;9683;49.028;12.064;2023-11-22T04:35:50;222.60;;;14.02;;
19101;SDS011;9683;49.028;12.064;2023-11-22T04:38:17;197.82;;;12.05;;
19101;SDS011;9683;49.028;12.064;2023-11-22T04:40:45;211.18;;;13.00;;
19101;SDS011;9683;49.028;12.064;2023-11-22T04:43:11;217.38;;;12.93;;
19101;SDS011;9683;49.028;12.064;2023-11-22T04:45:38;211.63;;;12.23;;
19101;SDS011;9683;49.028;12.064;2023-11-22T04:48:04;220.15;;;13.77;;
19101;SDS011;9683;49.028;12.064;2023-11-22T04:50:32;224.38;;;12.82;;
19101;SDS011;9683;49.028;12.064;2023-11-22T04:52:59;201.95;;;12.90;;
19101;SDS011;9683;49.028;12.064;2023-11-22T04:55:26;235.57;;;14.13;;
19101;SDS011;9683;49.028;12.064;2023-11-22T04:57:54;203.60;;;11.90;;
19101;SDS011;9683;49.028;12.064;2023-11-22T05:00:21;238.30;;;14.50;;
19101;SDS011;9683;49.028;12.064;2023-11-22T05:02:48;219.00;;;13.05;;
19101;SDS011;9683;49.028;12.064;2023-11-22T05:05:14;198.00;;;12.02;;
19101;SDS011;9683;49.028;12.064;2023-11-22T05:07:41;219.43;;;13.68;;
19101;SDS011;9683;49.028;12.064;2023-11-22T05:10:08;206.30;;;12.27;;
19101;SDS011;9683;49.028;12.064;2023-11-22T05:12:35;217.45;;;12.75;;
19101;SDS011;9683;49.028;12.064;2023-11-22T05:15:03;186.10;;;11.32;;
19101;SDS011;9683;49.028;12.064;2023-11-22T05:17:30;216.88;;;14.05;;
19101;SDS011;9683;49.028;12.064;2023-11-22T05:19:57;221.27;;;13.82;;
19101;SDS011;9683;49.028;12.064;2023-11-22T05:22:24;220.45;;;13.38;;
19101;SDS011;9683;49.028;12.064;2023-11-22T05:24:50;211.27;;;12.68;;
19101;SDS011;9683;49.028;12.064;2023-11-22T05:27:16;260.23;;;15.90;;
19101;SDS011;9683;49.028;12.064;2023-11-22T05:29:43;195.85;;;12.05;;
19101;SDS011;9683;49.028;12.064;2023-11-22T05:32:11;244.25;;;14.45;;
19101;SDS011;9683;49.028;12.064;2023-11-22T05:34:37;189.35;;;11.95;;
19101;SDS011;9683;49.028;12.064;2023-11-22T05:37:05;214.93;;;12.68;;
19101;SDS011;9683;49.028;12.064;2023-11-22T05:39:32;223.40;;;12.88;;
19101;SDS011;9683;49.028;12.064;2023-11-22T05:41:58;194.23;;;11.90;;
19101;SDS011;9683;49.028;12.064;2023-11-22T05:44:25;190.50;;;14.48;;
19101;SDS011;9683;49.028;12.064;2023-11-22T05:46:52;178.10;;;11.02;;
19101;SDS011;9683;49.028;12.064;2023-11-22T05:49:20;158.75;;;10.50;;
19101;SDS011;9683;49.028;12.064;2023-11-22T05:51:47;224.90;;;13.70;;
19101;SDS011;9683;49.028;12.064;2023-11-22T05:54:13;181.10;;;11.68;;
19101;SDS011;9683;49.028;12.064;2023-11-22T05:56:41;191.07;;;12.15;;
19101;SDS011;9683;49.028;12.064;2023-11-22T05:59:08;202.77;;;13.07;;
19101;SDS011;9683;49.028;12.064;2023-11-22T06:01:34;199.73;;;12.80;;
19101;SDS011;9683;49.028;12.064;2023-11-22T06:04:01;198.02;;;12.63;;
19101;SDS011;9683;49.028;12.064;2023-11-22T06:06:29;219.68;;;13.05;;
19101;SDS011;9683;49.028;12.064;2023-11-22T06:08:56;224.05;;;13.38;;
19101;SDS011;9683;49.028;12.064;2023-11-22T06:11:23;194.07;;;13.13;;
19101;SDS011;9683;49.028;12.064;2023-11-22T06:13:50;208.05;;;12.82;;
19101;SDS011;9683;49.028;12.064;2023-11-22T06:16:16;267.00;;;16.33;;
19101;SDS011;9683;49.028;12.064;2023-11-22T06:18:43;211.55;;;13.30;;
19101;SDS011;9683;49.028;12.064;2023-11-22T06:21:10;233.40;;;14.63;;
19101;SDS011;9683;49.028;12.064;2023-11-22T06:23:38;196.20;;;12.32;;
19101;SDS011;9683;49.028;12.064;2023-11-22T06:26:04;211.27;;;13.30;;
19101;SDS011;9683;49.028;12.064;2023-11-22T06:28:31;97.22;;;6.65;;
19101;SDS011;9683;49.028;12.064;2023-11-22T06:30:58;80.57;;;6.75;;
19101;SDS011;9683;49.028;12.064;2023-11-22T06:33:24;78.05;;;6.00;;
19101;SDS011;9683;49.028;12.064;2023-11-22T06:35:51;76.30;;;6.15;;
19101;SDS011;9683;49.028;12.064;2023-11-22T06:38:18;219.13;;;13.57;;
19101;SDS011;9683;49.028;12.064;2023-11-22T06:40:45;268.60;;;47.67;;
19101;SDS011;9683;49.028;12.064;2023-11-22T06:43:12;302.58;;;48.47;;
19101;SDS011;9683;49.028;12.064;2023-11-22T06:45:38;246.45;;;44.05;;
19101;SDS011;9683;49.028;12.064;2023-11-22T06:48:06;243.23;;;42.45;;
19101;SDS011;9683;49.028;12.064;2023-11-22T06:50:33;246.18;;;44.35;;
19101;SDS011;9683;49.028;12.064;2023-11-22T06:53:00;257.42;;;47.10;;
19101;SDS011;9683;49.028;12.064;2023-11-22T06:55:28;257.70;;;45.17;;
19101;SDS011;9683;49.028;12.064;2023-11-22T06:57:57;259.58;;;45.55;;
19101;SDS011;9683;49.028;12.064;2023-11-22T07:00:24;245.98;;;40.85;;
19101;SDS011;9683;49.028;12.064;2023-11-22T07:02:52;252.45;;;42.13;;
19101;SDS011;9683;49.028;12.064;2023-11-22T07:05:19;233.77;;;39.60;;
19101;SDS011;9683;49.028;12.064;2023-11-22T07:07:45;277.73;;;46.58;;
19101;SDS011;9683;49.028;12.064;2023-11-22T07:10:13;249.35;;;43.05;;
19101;SDS011;9683;49.028;12.064;2023-11-22T07:12:40;233.25;;;39.28;;
19101;SDS011;9683;49.028;12.064;2023-11-22T07:15:10;246.30;;;40.88;;
19101;SDS011;9683;49.028;12.064;2023-11-22T07:17:36;255.73;;;41.60;;
19101;SDS011;9683;49.028;12.064;2023-11-22T07:20:04;236.30;;;39.17;;
19101;SDS011;9683;49.028;12.064;2023-11-22T07:22:34;257.38;;;39.85;;
19101;SDS011;9683;49.028;12.064;2023-11-22T07:25:01;257.42;;;39.10;;
19101;SDS011;9683;49.028;12.064;2023-11-22T07:27:28;242.13;;;38.50;;
19101;SDS011;9683;49.028;12.064;2023-11-22T07:29:56;360.63;;;43.78;;
19101;SDS011;9683;49.028;12.064;2023-11-22T07:32:24;273.55;;;41.42;;
19101;SDS011;9683;49.028;12.064;2023-11-22T07:34:50;231.68;;;38.15;;
19101;SDS011;9683;49.028;12.064;2023-11-22T07:37:20;235.68;;;39.25;;
19101;SDS011;9683;49.028;12.064;2023-11-22T07:39:47;235.75;;;37.92;;
19101;SDS011;9683;49.028;12.064;2023-11-22T07:42:15;327.45;;;42.88;;
19101;SDS011;9683;49.028;12.064;2023-11-22T07:44:41;231.27;;;39.67;;
19101;SDS011;9683;49.028;12.064;2023-11-22T07:47:08;231.02;;;38.92;;
19101;SDS011;9683;49.028;12.064;2023-11-22T07:49:39;190.40;;;38.00;;
19101;SDS011;9683;49.028;12.064;2023-11-22T07:52:07;204.57;;;37.78;;
19101;SDS011;9683;49.028;12.064;2023-11-22T07:54:38;266.38;;;40.42;;
19101;SDS011;9683;49.028;12.064;2023-11-22T07:57:05;234.95;;;37.90;;
19101;SDS011;9683;49.028;12.064;2023-11-22T07:59:32;233.25;;;37.45;;
19101;SDS011;9683;49.028;12.064;2023-11-22T08:01:59;261.80;;;39.20;;
19101;SDS011;9683;49.028;12.064;2023-11-22T08:04:26;271.63;;;40.85;;
19101;SDS011;9683;49.028;12.064;2023-11-22T08:06:54;233.45;;;37.90;;
19101;SDS011;9683;49.028;12.064;2023-11-22T08:09:22;228.23;;;38.45;;
19101;SDS011;9683;49.028;12.064;2023-11-22T08:11:48;271.02;;;41.47;;
19101;SDS011;9683;49.028;12.064;2023-11-22T08:14:15;250.43;;;40.90;;
19101;SDS011;9683;49.028;12.064;2023-11-22T08:16:42;272.58;;;46.90;;
19101;SDS011;9683;49.028;12.064;2023-11-22T08:19:10;244.85;;;41.15;;
19101;SDS011;9683;49.028;12.064;2023-11-22T08:21:37;303.52;;;44.30;;
19101;SDS011;9683;49.028;12.064;2023-11-22T08:24:05;254.50;;;42.17;;
19101;SDS011;9683;49.028;12.064;2023-11-22T08:26:32;251.52;;;46.20;;
19101;SDS011;9683;49.028;12.064;2023-11-22T08:28:59;247.82;;;43.83;;
19101;SDS011;9683;49.028;12.064;2023-11-22T08:31:25;294.90;;;47.28;;
19101;SDS011;9683;49.028;12.064;2023-11-22T08:33:52;128.13;;;22.23;;
19101;SDS011;9683;49.028;12.064;2023-11-22T08:36:18;96.72;;;19.45;;
19101;SDS011;9683;49.028;12.064;2023-11-22T08:38:45;81.70;;;16.75;;
19101;SDS011;9683;49.028;12.064;2023-11-22T08:41:12;278.95;;;43.92;;
19101;SDS011;9683;49.028;12.064;2023-11-22T08:43:39;237.98;;;34.45;;
19101;SDS011;9683;49.028;12.064;2023-11-22T08:46:06;228.25;;;15.70;;
19101;SDS011;9683;49.028;12.064;2023-11-22T08:48:33;255.95;;;16.98;;
19101;SDS011;9683;49.028;12.064;2023-11-22T08:51:00;197.40;;;13.80;;
19101;SDS011;9683;49.028;12.064;2023-11-22T08:53:29;226.30;;;14.52;;
19101;SDS011;9683;49.028;12.064;2023-11-22T08:55:55;219.02;;;17.08;;
19101;SDS011;9683;49.028;12.064;2023-11-22T08:58:23;277.40;;;18.73;;
19101;SDS011;9683;49.028;12.064;2023-11-22T09:00:50;225.88;;;15.35;;
19101;SDS011;9683;49.028;12.064;2023-11-22T09:03:17;244.18;;;20.70;;
19101;SDS011;9683;49.028;12.064;2023-11-22T09:05:44;242.65;;;24.27;;
19101;SDS011;9683;49.028;12.064;2023-11-22T09:08:11;286.33;;;52.72;;
19101;SDS011;9683;49.028;12.064;2023-11-22T09:10:40;243.73;;;20.88;;
19101;SDS011;9683;49.028;12.064;2023-11-22T09:13:07;277.65;;;48.78;;
19101;SDS011;9683;49.028;12.064;2023-11-22T09:15:35;235.38;;;14.52;;
19101;SDS011;9683;49.028;12.064;2023-11-22T09:18:03;214.20;;;14.98;;
19101;SDS011;9683;49.028;12.064;2023-11-22T09:20:31;204.57;;;13.90;;
19101;SDS011;9683;49.028;12.064;2023-11-22T09:22:58;212.70;;;14.20;;
19101;SDS011;9683;49.028;12.064;2023-11-22T09:25:24;241.88;;;15.45;;
19101;SDS011;9683;49.028;12.064;2023-11-22T09:27:53;200.80;;;14.18;;
19101;SDS011;9683;49.028;12.064;2023-11-22T09:30:24;174.38;;;12.48;;
19101;SDS011;9683;49.028;12.064;2023-11-22T09:33:04;187.77;;;13.43;;
19101;SDS011;9683;49.028;12.064;2023-11-22T09:35:32;208.23;;;13.52;;
19101;SDS011;9683;49.028;12.064;2023-11-22T09:37:58;229.65;;;15.82;;
19101;SDS011;9683;49.028;12.064;2023-11-22T09:40:25;212.10;;;14.90;;
19101;SDS011;9683;49.028;12.064;2023-11-22T09:42:54;210.75;;;14.95;;
19101;SDS011;9683;49.028;12.064;2023-11-22T09:45:21;233.35;;;14.63;;
19101;SDS011;9683;49.028;12.064;2023-11-22T09:47:48;216.70;;;15.05;;
19101;SDS011;9683;49.028;12.064;2023-11-22T09:50:17;221.98;;;16.45;;
19101;SDS011;9683;49.028;12.064;2023-11-22T09:52:46;245.48;;;16.02;;
19101;SDS011;9683;49.028;12.064;2023-11-22T09:55:16;260.90;;;20.13;;
19101;SDS011;9683;49.028;12.064;2023-11-22T09:57:43;298.95;;;53.70;;
19101;SDS011;9683;49.028;12.064;2023-11-22T10:00:10;257.90;;;27.40;;
19101;SDS011;9683;49.028;12.064;2023-11-22T10:02:39;247.27;;;24.30;;
19101;SDS011;9683;49.028;12.064;2023-11-22T10:05:06;239.48;;;24.85;;
19101;SDS011;9683;49.028;12.064;2023-11-22T10:07:36;274.40;;;29.05;;
19101;SDS011;9683;49.028;12.064;2023-11-22T10:10:03;260.70;;;33.45;;
19101;SDS011;9683;49.028;12.064;2023-11-22T10:12:32;255.35;;;30.80;;
19101;SDS011;9683;49.028;12.064;2023-11-22T10:15:11;243.85;;;24.70;;
19101;SDS011;9683;49.028;12.064;2023-11-22T10:17:39;284.83;;;29.33;;
19101;SDS011;9683;49.028;12.064;2023-11-22T10:20:06;281.63;;;23.38;;
19101;SDS011;9683;49.028;12.064;2023-11-22T10:22:45;339.15;;;70.35;;
19101;SDS011;9683;49.028;12.064;2023-11-22T10:25:13;269.35;;;50.40;;
19101;SDS011;9683;49.028;12.064;2023-11-22T10:27:43;255.65;;;28.33;;
19101;SDS011;9683;49.028;12.064;2023-11-22T10:30:11;302.92;;;42.75;;
19101;SDS011;9683;49.028;12.064;2023-11-22T10:32:37;285.02;;;64.15;;
19101;SDS011;9683;49.028;12.064;2023-11-22T10:35:05;264.33;;;62.53;;
19101;SDS011;9683;49.028;12.064;2023-11-22T10:37:32;165.13;;;13.38;;
19101;SDS011;9683;49.028;12.064;2023-11-22T10:40:01;213.93;;;13.60;;
19101;SDS011;9683;49.028;12.064;2023-11-22T10:42:30;209.55;;;13.00;;
19101;SDS011;9683;49.028;12.064;2023-11-22T10:44:57;188.63;;;12.10;;
19101;SDS011;9683;49.028;12.064;2023-11-22T10:47:28;208.05;;;12.82;;
19101;SDS011;9683;49.028;12.064;2023-11-22T10:49:56;167.15;;;11.25;;
19101;SDS011;9683;49.028;12.064;2023-11-22T10:52:26;219.35;;;13.60;;
19101;SDS011;9683;49.028;12.064;2023-11-22T10:54:55;214.23;;;13.90;;
19101;SDS011;9683;49.028;12.064;2023-11-22T10:57:31;261.17;;;17.20;;
19101;SDS011;9683;49.028;12.064;2023-11-22T11:00:00;248.57;;;16.15;;
19101;SDS011;9683;49.028;12.064;2023-11-22T11:02:34;209.52;;;13.73;;
19101;SDS011;9683;49.028;12.064;2023-11-22T11:05:06;213.70;;;13.82;;
19101;SDS011;9683;49.028;12.064;2023-11-22T11:07:41;259.17;;;17.98;;
19101;SDS011;9683;49.028;12.064;2023-11-22T11:10:13;211.15;;;15.20;;
19101;SDS011;9683;49.028;12.064;2023-11-22T11:12:42;253.43;;;17.00;;
19101;SDS011;9683;49.028;12.064;2023-11-22T11:15:10;210.43;;;14.55;;
19101;SDS011;9683;49.028;12.064;2023-11-22T11:17:37;232.60;;;15.20;;
19101;SDS011;9683;49.028;12.064;2023-11-22T11:20:05;229.90;;;15.48;;
19101;SDS011;9683;49.028;12.064;2023-11-22T11:22:32;207.35;;;14.95;;
19101;SDS011;9683;49.028;12.064;2023-11-22T11:25:00;193.10;;;15.32;;
19101;SDS011;9683;49.028;12.064;2023-11-22T11:27:30;232.57;;;19.67;;
19101;SDS011;9683;49.028;12.064;2023-11-22T11:30:01;240.77;;;18.17;;
19101;SDS011;9683;49.028;12.064;2023-11-22T11:32:49;270.98;;;39.05;;
19101;SDS011;9683;49.028;12.064;2023-11-22T11:35:17;277.27;;;31.33;;
19101;SDS011;9683;49.028;12.064;2023-11-22T11:37:46;250.95;;;41.75;;
19101;SDS011;9683;49.028;12.064;2023-11-22T11:40:24;262.35;;;28.38;;
19101;SDS011;9683;49.028;12.064;2023-11-22T11:42:51;229.65;;;18.65;;
19101;SDS011;9683;49.028;12.064;2023-11-22T11:45:20;235.75;;;19.10;;
19101;SDS011;9683;49.028;12.064;2023-11-22T11:47:46;212.55;;;17.15;;
19101;SDS011;9683;49.028;12.064;2023-11-22T11:50:13;265.70;;;21.80;;
19101;SDS011;9683;49.028;12.064;2023-11-22T11:52:40;269.13;;;21.98;;
19101;SDS011;9683;49.028;12.064;2023-11-22T11:55:07;245.43;;;19.08;;
19101;SDS011;9683;49.028;12.064;2023-11-22T11:57:34;244.00;;;19.85;;
19101;SDS011;9683;49.028;12.064;2023-11-22T12:00:02;231.25;;;17.55;;
19101;SDS011;9683;49.028;12.064;2023-11-22T12:02:31;228.75;;;17.63;;
19101;SDS011;9683;49.028;12.064;2023-11-22T12:04:58;245.32;;;19.40;;
19101;SDS011;9683;49.028;12.064;2023-11-22T12:07:26;264.15;;;19.20;;
19101;SDS011;9683;49.028;12.064;2023-11-22T12:09:52;257.42;;;18.75;;
19101;SDS011;9683;49.028;12.064;2023-11-22T12:12:22;274.73;;;19.40;;
19101;SDS011;9683;49.028;12.064;2023-11-22T12:14:49;229.32;;;19.42;;
19101;SDS011;9683;49.028;12.064;2023-11-22T12:17:15;249.40;;;18.85;;
19101;SDS011;9683;49.028;12.064;2023-11-22T12:19:44;272.42;;;21.20;;
19101;SDS011;9683;49.028;12.064;2023-11-22T12:22:11;266.50;;;20.00;;
19101;SDS011;9683;49.028;12.064;2023-11-22T12:24:38;284.83;;;21.90;;
19101;SDS011;9683;49.028;12.064;2023-11-22T12:27:04;266.25;;;20.77;;
19101;SDS011;9683;49.028;12.064;2023-11-22T12:29:35;247.02;;;19.08;;
19101;SDS011;9683;49.028;12.064;2023-11-22T12:32:02;231.30;;;18.73;;
19101;SDS011;9683;49.028;12.064;2023-11-22T12:34:29;265.40;;;19.13;;
19101;SDS011;9683;49.028;12.064;2023-11-22T12:36:57;223.20;;;15.50;;
19101;SDS011;9683;49.028;12.064;2023-11-22T12:39:23;236.02;;;16.83;;
19101;SDS011;9683;49.028;12.064;2023-11-22T12:41:51;225.40;;;16.15;;
19101;SDS011;9683;49.028;12.064;2023-11-22T12:44:19;246.13;;;16.27;;
19101;SDS011;9683;49.028;12.064;2023-11-22T12:46:47;233.55;;;16.80;;
19101;SDS011;9683;49.028;12.064;2023-11-22T12:49:17;224.35;;;16.27;;
19101;SDS011;9683;49.028;12.064;2023-11-22T12:51:47;240.75;;;16.42;;
19101;SDS011;9683;49.028;12.064;2023-11-22T12:54:16;222.98;;;15.95;;
19101;SDS011;9683;49.028;12.064;2023-11-22T12:56:45;223.57;;;15.80;;
19101;SDS011;9683;49.028;12.064;2023-11-22T12:59:15;221.88;;;15.93;;
19101;SDS011;9683;49.028;12.064;2023-11-22T13:01:41;207.73;;;14.13;;
19101;SDS011;9683;49.028;12.064;2023-11-22T13:04:08;223.23;;;14.88;;
19101;SDS011;9683;49.028;12.064;2023-11-22T13:06:35;199.88;;;14.40;;
19101;SDS011;9683;49.028;12.064;2023-11-22T13:09:02;212.15;;;13.82;;
19101;SDS011;9683;49.028;12.064;2023-11-22T13:11:30;231.70;;;15.50;;
19101;SDS011;9683;49.028;12.064;2023-11-22T13:13:57;209.13;;;16.15;;
19101;SDS011;9683;49.028;12.064;2023-11-22T13:16:24;242.77;;;17.20;;
19101;SDS011;9683;49.028;12.064;2023-11-22T13:18:50;235.15;;;16.60;;
19101;SDS011;9683;49.028;12.064;2023-11-22T13:21:17;225.43;;;16.00;;
19101;SDS011;9683;49.028;12.064;2023-11-22T13:23:44;221.20;;;16.00;;
19101;SDS011;9683;49.028;12.064;2023-11-22T13:26:10;241.35;;;16.20;;
19101;SDS011;9683;49.028;12.064;2023-11-22T13:28:39;252.02;;;18.30;;
19101;SDS011;9683;49.028;12.064;2023-11-22T13:31:07;209.23;;;14.80;;
19101;SDS011;9683;49.028;12.064;2023-11-22T13:33:34;257.67;;;18.40;;
19101;SDS011;9683;49.028;12.064;2023-11-22T13:36:01;231.27;;;15.85;;
19101;SDS011;9683;49.028;12.064;2023-11-22T13:38:28;218.73;;;15.20;;
19101;SDS011;9683;49.028;12.064;2023-11-22T13:40:55;177.07;;;12.52;;
19101;SDS011;9683;49.028;12.064;2023-11-22T13:43:21;208.98;;;15.38;;
19101;SDS011;9683;49.028;12.064;2023-11-22T13:45:49;263.63;;;17.00;;
19101;SDS011;9683;49.028;12.064;2023-11-22T13:48:16;214.02;;;14.20;;
19101;SDS011;9683;49.028;12.064;2023-11-22T13:50:42;213.52;;;14.73;;
19101;SDS011;9683;49.028;12.064;2023-11-22T13:53:09;229.68;;;16.15;;
19101;SDS011;9683;49.028;12.064;2023-11-22T13:55:36;238.55;;;16.60;;
19101;SDS011;9683;49.028;12.064;2023-11-22T13:58:03;243.50;;;16.65;;
19101;SDS011;9683;49.028;12.064;2023-11-22T14:00:31;254.02;;;16.52;;
19101;SDS011;9683;49.028;12.064;2023-11-22T14:03:01;216.82;;;15.38;;
19101;SDS011;9683;49.028;12.064;2023-11-22T14:05:31;229.15;;;15.38;;
19101;SDS011;9683;49.028;12.064;2023-11-22T14:07:59;236.40;;;15.65;;
19101;SDS011;9683;49.028;12.064;2023-11-22T14:10:26;251.48;;;16.58;;